Time;durP1;ratioP1;P1;durP2;ratioP2;P2;SDS_P1;SDS_P2;PMS_P1;PMS_P2;Temp;Humidity;BMP_temperature;BMP_pressure;BME280_temperature;BME280_humidity;BME280_pressure;Samples;Min_cycle;Max_cycle;Signal;HPM_P1;HPM_P2
2022/03/24 00:02:13;;;;;;;14.80;8.40;;;;;;;5.01;34.07;100243.16;6337283;22;19999;-88
2022/03/24 00:04:38;;;;;;;15.10;8.60;;;;;;;5.93;34.30;100385.75;6337404;22;19994;-89
2022/03/24 00:07:04;;;;;;;15.45;8.98;;;;;;;6.14;34.47;100411.97;6309577;22;19998;-89
2022/03/24 00:09:30;;;;;;;17.33;8.75;;;;;;;5.43;34.30;100350.59;6309307;22;19995;-88
2022/03/24 00:11:55;;;;;;;14.43;8.73;;;;;;;5.79;34.34;100372.91;6309569;22;20081;-89
2022/03/24 00:14:22;;;;;;;15.57;8.83;;;;;;;5.76;34.50;100370.56;6337172;22;20037;-89
2022/03/24 00:16:48;;;;;;;14.37;9.37;;;;;;;5.99;34.60;100403.59;6320196;22;20021;-88
2022/03/24 00:19:16;;;;;;;14.60;8.77;;;;;;;5.07;34.86;100247.06;6342881;22;20071;-89
2022/03/24 00:21:43;;;;;;;12.07;7.97;;;;;;;5.41;34.92;100316.66;6338018;22;19999;-88
2022/03/24 00:24:08;;;;;;;15.17;8.70;;;;;;;5.80;35.25;100384.22;6337274;22;20428;-88
2022/03/24 00:26:34;;;;;;;17.80;9.07;;;;;;;5.46;34.76;100346.88;6338001;22;20013;-88
2022/03/24 00:29:02;;;;;;;13.70;8.87;;;;;;;5.58;34.89;100369.44;6310095;22;20038;-88
2022/03/24 00:31:28;;;;;;;15.80;8.73;;;;;;;4.28;34.95;100130.56;6336852;22;20056;-89
2022/03/24 00:33:53;;;;;;;14.57;8.20;;;;;;;5.55;35.11;100354.81;6337090;22;20003;-89
2022/03/24 00:36:20;;;;;;;14.50;7.72;;;;;;;5.22;34.89;100279.88;6309214;22;20002;-88
2022/03/24 00:38:46;;;;;;;12.33;8.30;;;;;;;5.75;34.88;100382.81;6309088;22;19995;-88
2022/03/24 00:41:12;;;;;;;12.73;7.60;;;;;;;5.34;35.09;100307.66;6309243;22;19999;-88
2022/03/24 00:43:39;;;;;;;16.43;8.00;;;;;;;5.01;35.33;100265.88;6309314;22;20009;-87
2022/03/24 00:46:05;;;;;;;15.17;7.17;;;;;;;5.77;35.24;100366.97;6336978;22;20068;-88
2022/03/24 00:48:31;;;;;;;12.60;7.80;;;;;;;5.46;35.10;100312.84;6309097;22;19999;-88
2022/03/24 00:50:57;;;;;;;13.43;7.27;;;;;;;5.74;35.26;100401.28;6346314;22;20077;-87
2022/03/24 00:53:23;;;;;;;16.03;8.93;;;;;;;5.41;35.02;100308.81;6344671;22;20009;-87
2022/03/24 00:55:49;;;;;;;13.50;8.07;;;;;;;4.79;35.07;100236.22;6337076;22;20002;-88
2022/03/24 00:58:15;;;;;;;15.23;8.93;;;;;;;5.11;35.12;100298.19;6309538;22;20009;-87
2022/03/24 01:00:42;;;;;;;15.47;8.30;;;;;;;4.13;35.37;100128.25;6309221;22;20347;-87
2022/03/24 01:03:09;;;;;;;15.60;8.93;;;;;;;5.32;35.39;100299.09;6309340;22;19994;-88
2022/03/24 01:05:37;;;;;;;15.47;8.00;;;;;;;5.17;35.17;100333.50;6309433;22;19998;-88
2022/03/24 01:08:05;;;;;;;14.60;8.77;;;;;;;3.95;35.29;100080.06;6336848;22;19994;-87
2022/03/24 01:10:32;;;;;;;14.20;7.97;;;;;;;3.95;35.33;100141.94;6336807;22;20015;-87
2022/03/24 01:12:59;;;;;;;13.17;7.40;;;;;;;4.98;35.33;100237.34;6309272;22;20359;-87
2022/03/24 01:15:26;;;;;;;12.77;7.93;;;;;;;5.17;35.63;100276.75;6337151;22;20063;-88
2022/03/24 01:17:52;;;;;;;11.53;6.97;;;;;;;3.88;35.21;100107.63;6337078;22;20062;-88
2022/03/24 01:20:17;;;;;;;14.83;7.57;;;;;;;5.10;35.66;100272.97;6309404;22;20014;-88
2022/03/24 01:22:44;;;;;;;13.23;7.03;;;;;;;5.37;35.46;100327.53;6336910;22;19999;-87
2022/03/24 01:25:09;;;;;;;11.47;7.63;;;;;;;4.21;35.86;100151.16;6309593;22;19999;-86
2022/03/24 01:27:38;;;;;;;14.37;7.70;;;;;;;4.98;35.92;100272.19;6311511;22;20017;-86
2022/03/24 01:30:04;;;;;;;15.40;7.33;;;;;;;4.95;35.70;100296.00;6312049;22;20015;-87
2022/03/24 01:32:30;;;;;;;16.17;7.10;;;;;;;3.63;35.83;100050.44;6340799;22;20003;-86
2022/03/24 01:38:59;;;;;;;10.98;6.20;;;;;;;5.06;36.50;100306.44;6366383;22;20024;-83
2022/03/24 01:41:24;;;;;;;15.73;7.60;;;;;;;3.75;35.90;100126.06;6332308;22;20049;-83
2022/03/24 01:44:32;;;;;;;14.33;7.23;;;;;;;5.01;36.47;100311.19;6346489;22;20351;-84
2022/03/24 01:51:50;;;;;;;14.10;8.37;;;;;;;4.84;36.68;100300.44;6189929;23;20020;-83
2022/03/24 01:57:07;;;;;;;20.43;9.23;;;;;;;2.96;36.36;99996.47;6363775;22;20070;-83
2022/03/24 01:59:33;;;;;;;13.57;7.50;;;;;;;1.67;36.32;99764.94;6368245;22;19993;-84
2022/03/24 02:01:59;;;;;;;14.30;7.23;;;;;;;1.87;36.35;99811.13;6369396;22;19978;-82
2022/03/24 02:04:24;;;;;;;10.00;6.70;;;;;;;2.87;36.14;99974.56;6368977;22;19985;-86
2022/03/24 02:06:51;;;;;;;13.33;6.80;;;;;;;1.79;36.72;99795.25;6368589;22;19987;-85
2022/03/24 02:09:17;;;;;;;11.40;6.70;;;;;;;1.57;36.54;99777.81;6342960;22;20003;-84
2022/03/24 02:11:42;;;;;;;11.20;6.87;;;;;;;1.97;36.60;99896.34;6369321;22;19989;-84
2022/03/24 02:14:08;;;;;;;14.00;6.43;;;;;;;1.55;36.28;99763.28;6342762;22;20019;-86
2022/03/24 02:16:38;;;;;;;12.57;6.53;;;;;;;3.14;36.57;100077.75;6369360;22;19983;-84
2022/03/24 02:21:55;;;;;;;11.83;6.37;;;;;;;3.56;36.34;100104.91;6351728;22;20011;-82
2022/03/24 02:24:23;;;;;;;12.20;6.47;;;;;;;4.67;36.63;100375.00;6369315;22;20031;-85
2022/03/24 02:26:49;;;;;;;14.70;6.67;;;;;;;1.65;36.37;99787.66;6369301;22;20021;-85
2022/03/24 02:29:17;;;;;;;11.03;6.57;;;;;;;2.12;36.51;99869.97;6369348;22;20030;-82
2022/03/24 02:31:49;;;;;;;12.53;7.10;;;;;;;3.58;36.34;100107.41;6369349;22;19987;-85
2022/03/24 02:34:47;;;;;;;13.63;6.93;;;;;;;1.59;36.76;99838.41;6364900;22;20048;-84
2022/03/24 02:37:17;;;;;;;18.57;7.77;;;;;;;1.47;37.09;99802.03;6365867;22;20006;-84
2022/03/24 02:39:44;;;;;;;14.07;7.40;;;;;;;1.65;36.77;99784.22;6341528;22;19987;-84
2022/03/24 02:42:14;;;;;;;12.97;7.03;;;;;;;1.50;36.76;99755.81;6369293;22;19986;-85
2022/03/24 02:44:44;;;;;;;12.87;7.17;;;;;;;1.81;37.09;99858.44;6369500;22;19983;-85
2022/03/24 02:47:11;;;;;;;10.43;6.43;;;;;;;1.58;36.75;99817.69;6369150;22;19993;-83
2022/03/24 02:49:37;;;;;;;14.10;7.43;;;;;;;2.45;36.99;99894.44;6369041;22;19994;-83
2022/03/24 02:52:04;;;;;;;11.53;6.83;;;;;;;2.43;37.04;99904.16;6369240;22;20035;-83
2022/03/24 02:54:31;;;;;;;14.03;7.43;;;;;;;2.25;37.05;99955.88;6369032;22;19995;-85
2022/03/24 02:56:58;;;;;;;10.67;6.97;;;;;;;1.64;36.88;99826.81;6342708;22;19991;-85
2022/03/24 02:59:24;;;;;;;11.33;6.53;;;;;;;2.55;37.02;99990.06;6358211;22;20015;-85
2022/03/24 03:02:01;;;;;;;12.67;6.60;;;;;;;1.55;37.34;99815.31;6337824;22;20031;-85
2022/03/24 03:04:28;;;;;;;10.60;6.80;;;;;;;1.66;37.12;99786.72;6337826;22;20013;-84
2022/03/24 03:06:54;;;;;;;11.63;6.17;;;;;;;1.35;37.42;99790.75;6337638;22;19988;-84
2022/03/24 03:09:21;;;;;;;10.50;6.37;;;;;;;1.26;37.10;99776.66;6337949;22;19987;-84
2022/03/24 03:11:48;;;;;;;11.73;6.57;;;;;;;1.65;37.56;99836.28;6337870;22;20013;-85
2022/03/24 03:14:15;;;;;;;12.90;6.47;;;;;;;2.58;37.22;100011.63;6337586;22;20011;-84
2022/03/24 03:16:42;;;;;;;8.97;6.40;;;;;;;1.43;37.44;99840.44;6337524;22;19999;-86
2022/03/24 03:19:08;;;;;;;8.47;6.00;;;;;;;1.52;36.92;99785.16;6310853;22;20047;-86
2022/03/24 03:21:35;;;;;;;13.67;6.93;;;;;;;3.17;37.31;100059.25;6337544;22;19983;-85
2022/03/24 03:24:01;;;;;;;10.20;6.40;;;;;;;1.94;36.91;99845.34;6337439;22;19988;-85
2022/03/24 03:26:27;;;;;;;11.80;7.03;;;;;;;2.58;37.38;99993.38;6337503;22;19995;-84
2022/03/24 03:28:52;;;;;;;11.83;7.63;;;;;;;3.17;37.55;100060.06;6337575;22;20033;-82
2022/03/24 03:31:20;;;;;;;13.33;7.73;;;;;;;2.55;37.47;99956.16;6311082;22;20057;-83
2022/03/24 03:33:46;;;;;;;15.37;7.53;;;;;;;2.47;37.29;99966.34;6336927;22;20021;-84
2022/03/24 03:36:12;;;;;;;16.47;9.00;;;;;;;2.28;37.50;99960.03;6337393;22;19999;-82
2022/03/24 03:38:39;;;;;;;17.13;8.77;;;;;;;1.35;37.71;99808.13;6337435;22;19999;-86
2022/03/24 03:41:05;;;;;;;16.57;8.93;;;;;;;1.61;37.82;99845.25;6337582;22;20050;-83
2022/03/24 03:43:32;;;;;;;19.07;10.53;;;;;;;2.18;37.59;99965.06;6337159;22;19984;-83
2022/03/24 03:45:58;;;;;;;19.40;11.53;;;;;;;1.18;38.02;99801.56;6337058;22;20003;-82
2022/03/24 03:48:24;;;;;;;23.43;12.37;;;;;;;1.20;37.66;99786.69;6336970;22;19991;-82
2022/03/24 03:50:50;;;;;;;20.70;11.60;;;;;;;2.95;38.12;100070.47;6336480;22;20038;-82
2022/03/24 03:53:16;;;;;;;22.13;12.43;;;;;;;1.16;37.93;99739.25;6336963;22;20002;-84
2022/03/24 03:55:42;;;;;;;26.13;15.33;;;;;;;1.86;37.84;99897.97;6336797;22;20014;-84
2022/03/24 03:58:08;;;;;;;23.47;13.47;;;;;;;2.38;37.51;99979.25;6310365;22;20042;-84
2022/03/24 04:03:15;;;;;;;17.77;10.02;;;;;;;1.33;37.79;99804.81;6336510;22;20009;-82
2022/03/24 04:05:41;;;;;;;16.63;9.33;;;;;;;1.36;37.78;99812.38;6336843;22;20086;-82
2022/03/24 04:08:10;;;;;;;15.23;9.33;;;;;;;2.95;37.74;100060.03;6336831;22;19987;-82
2022/03/24 04:10:40;;;;;;;13.07;9.13;;;;;;;1.41;37.98;99825.88;6336736;22;19987;-82
2022/03/24 04:13:06;;;;;;;17.67;9.27;;;;;;;1.13;38.21;99778.50;6336656;22;19991;-81
2022/03/24 04:15:35;;;;;;;14.20;10.17;;;;;;;1.44;37.82;99817.84;6337024;22;20009;-85
2022/03/24 04:18:01;;;;;;;15.90;10.20;;;;;;;1.42;38.27;99817.97;6336922;22;19983;-82
2022/03/24 04:20:26;;;;;;;16.60;9.90;;;;;;;2.16;37.76;99912.25;6336978;22;19994;-83
2022/03/24 04:22:53;;;;;;;17.77;10.13;;;;;;;1.61;37.71;99837.44;6336659;22;19998;-83
2022/03/24 04:25:22;;;;;;;15.17;9.80;;;;;;;3.17;37.66;100096.59;6336827;22;19991;-84
2022/03/24 04:27:49;;;;;;;17.07;10.27;;;;;;;2.10;38.04;99912.72;6310132;22;20007;-84
2022/03/24 04:30:16;;;;;;;16.27;9.73;;;;;;;1.74;38.20;99885.88;6334499;22;20004;-83
2022/03/24 04:32:42;;;;;;;16.50;10.50;;;;;;;2.28;37.96;99928.78;6332658;22;20046;-84
2022/03/24 04:35:09;;;;;;;20.93;10.73;;;;;;;1.03;37.95;99746.31;6336816;22;19990;-85
2022/03/24 04:37:35;;;;;;;22.07;10.83;;;;;;;1.19;38.24;99767.66;6336778;22;20035;-83
2022/03/24 04:40:02;;;;;;;25.30;15.47;;;;;;;1.13;38.22;99760.28;6336625;22;19983;-84
2022/03/24 04:42:27;;;;;;;18.60;12.30;;;;;;;1.02;38.15;99686.63;6336815;22;19983;-85
2022/03/24 04:44:53;;;;;;;25.30;16.07;;;;;;;4.25;37.90;100285.03;6310018;22;20004;-84
2022/03/24 04:47:18;;;;;;;26.70;16.70;;;;;;;1.30;37.73;99774.66;6336630;22;20007;-84
2022/03/24 04:49:44;;;;;;;28.40;18.23;;;;;;;1.46;38.08;99756.13;6336527;22;20010;-83
2022/03/24 04:52:10;;;;;;;27.23;17.63;;;;;;;1.39;37.94;99819.97;6336606;22;20003;-83
2022/03/24 04:54:35;;;;;;;30.37;18.57;;;;;;;1.66;37.73;99854.38;6309964;22;19995;-82
2022/03/24 04:57:01;;;;;;;27.60;18.80;;;;;;;1.18;38.11;99797.19;6336760;22;20007;-82
2022/03/24 05:02:15;;;;;;;25.83;18.27;;;;;;;0.96;37.80;99750.31;6356913;22;20013;-85
2022/03/24 05:04:43;;;;;;;22.40;16.80;;;;;;;1.37;37.83;99785.44;6367961;22;19991;-85
2022/03/24 05:07:09;;;;;;;22.57;13.67;;;;;;;1.24;37.80;99738.69;6368190;22;20348;-84
2022/03/24 05:09:35;;;;;;;26.17;15.23;;;;;;;1.08;37.96;99767.59;6367661;22;20002;-84
2022/03/24 05:12:01;;;;;;;32.83;17.70;;;;;;;0.83;37.76;99693.19;6367617;22;19993;-84
2022/03/24 05:14:27;;;;;;;32.63;18.63;;;;;;;1.07;37.75;99741.72;6367555;22;19991;-82
2022/03/24 05:16:52;;;;;;;33.33;19.57;;;;;;;1.08;37.82;99675.78;6367743;22;20023;-85
2022/03/24 05:19:19;;;;;;;42.93;25.33;;;;;;;3.09;37.65;100019.88;6367971;22;19999;-82
2022/03/24 05:21:45;;;;;;;47.40;25.87;;;;;;;1.25;37.51;99759.38;6367726;22;19983;-85
2022/03/24 05:24:11;;;;;;;49.50;27.83;;;;;;;1.30;37.55;99753.00;6368067;22;20018;-86
2022/03/24 05:26:38;;;;;;;50.67;28.97;;;;;;;2.34;37.35;99939.56;6368167;22;20010;-85
2022/03/24 05:29:03;;;;;;;55.43;30.57;;;;;;;3.32;37.45;100020.69;6368078;22;20003;-84
2022/03/24 05:31:29;;;;;;;51.50;28.80;;;;;;;1.57;37.85;99724.94;6340997;22;20017;-85
2022/03/24 05:33:54;;;;;;;49.73;30.47;;;;;;;1.48;37.27;99741.22;6367548;22;19991;-86
2022/03/24 05:36:20;;;;;;;49.33;30.50;;;;;;;1.77;37.30;99726.88;6341031;22;19995;-85
2022/03/24 05:38:45;;;;;;;55.93;31.80;;;;;;;1.81;37.27;99717.03;6367417;22;19983;-82
2022/03/24 05:41:12;;;;;;;52.10;31.97;;;;;;;2.18;37.17;99759.28;6367412;22;20012;-83
2022/03/24 05:43:38;;;;;;;50.37;32.17;;;;;;;2.04;37.15;99717.88;6366829;22;20026;-84
2022/03/24 05:46:04;;;;;;;56.23;32.97;;;;;;;3.28;37.12;99920.09;6361157;22;19979;-83
2022/03/24 05:48:29;;;;;;;61.00;33.73;;;;;;;3.61;36.88;99989.66;6358116;22;20329;-85
2022/03/24 05:50:55;;;;;;;53.60;32.90;;;;;;;5.31;36.79;100225.91;6345589;22;19994;-85
2022/03/24 05:53:20;;;;;;;59.23;34.63;;;;;;;4.37;37.04;100051.41;6339532;22;19999;-87
2022/03/24 05:55:45;;;;;;;56.50;35.00;;;;;;;3.82;36.94;99995.81;6338267;22;20044;-88
2022/03/24 05:58:12;;;;;;;65.03;35.10;;;;;;;4.32;37.30;100024.81;6337054;22;19994;-89
2022/03/24 06:00:40;;;;;;;61.30;34.73;;;;;;;4.55;36.96;100020.31;6336659;22;20030;-88
2022/03/24 06:03:06;;;;;;;60.77;36.80;;;;;;;4.16;36.68;99962.53;6309170;22;20010;-88
2022/03/24 06:05:31;;;;;;;66.30;41.17;;;;;;;4.08;37.02;99905.69;6308487;22;19999;-89
2022/03/24 06:08:01;;;;;;;70.07;42.60;;;;;;;5.87;37.27;100191.47;6308860;22;19999;-89
2022/03/24 06:10:27;;;;;;;77.37;47.00;;;;;;;5.48;36.98;100085.69;6308456;22;20074;-89
2022/03/24 06:12:53;;;;;;;62.43;40.53;;;;;;;6.26;36.88;100202.97;6308508;22;20017;-90
2022/03/24 06:15:19;;;;;;;70.23;43.47;;;;;;;4.60;36.94;99918.78;6337898;22;20436;-88
2022/03/24 06:17:44;;;;;;;55.27;36.00;;;;;;;6.09;36.76;100127.56;6310463;22;19999;-89
2022/03/24 06:20:10;;;;;;;58.77;34.60;;;;;;;6.58;36.89;100179.13;6337953;22;19998;-89
2022/03/24 06:22:48;;;;;;;30.70;20.40;;;;;;;6.88;37.54;100213.16;6337944;22;20002;-89
2022/03/24 06:25:14;;;;;;;33.20;20.07;;;;;;;7.10;36.66;100193.66;6338061;22;20022;-88
2022/03/24 06:27:40;;;;;;;31.63;18.07;;;;;;;7.07;36.73;100183.44;6310374;22;20026;-89
2022/03/24 06:30:06;;;;;;;23.70;14.30;;;;;;;6.46;36.80;100059.56;6310567;22;20005;-89
2022/03/24 06:32:32;;;;;;;21.80;14.47;;;;;;;7.06;36.72;100103.00;6310102;22;20007;-89
2022/03/24 06:34:58;;;;;;;22.65;12.55;;;;;;;7.54;36.85;100160.69;6337914;22;20052;-88
2022/03/24 06:37:23;;;;;;;20.13;12.75;;;;;;;7.88;36.90;100195.13;6310354;22;20005;-89
2022/03/24 06:39:49;;;;;;;22.48;13.38;;;;;;;7.17;36.95;100065.25;6310012;22;19994;-87
2022/03/24 06:42:14;;;;;;;25.85;13.82;;;;;;;7.76;37.05;100127.13;6337762;22;20067;-89
2022/03/24 06:44:40;;;;;;;22.60;13.00;;;;;;;8.05;37.00;100154.09;6309957;22;19994;-88
2022/03/24 06:47:05;;;;;;;21.35;14.07;;;;;;;8.11;36.36;100148.25;6337791;22;20001;-87
2022/03/24 06:49:31;;;;;;;18.05;10.90;;;;;;;8.09;36.01;100121.25;6310288;22;20001;-86
2022/03/24 06:51:56;;;;;;;14.75;9.27;;;;;;;8.43;35.96;100149.63;6337793;22;20002;-86
2022/03/24 06:54:22;;;;;;;14.20;8.13;;;;;;;8.42;35.69;100135.63;6337618;22;20007;-86
2022/03/24 06:56:49;;;;;;;13.05;8.18;;;;;;;8.15;35.42;100057.56;6309667;22;20037;-87
2022/03/24 06:59:14;;;;;;;15.95;8.65;;;;;;;8.37;35.48;100071.28;6337362;22;20446;-86
2022/03/24 07:01:40;;;;;;;14.98;9.00;;;;;;;7.33;36.06;99906.06;6336794;22;20014;-86
2022/03/24 07:04:05;;;;;;;16.88;9.43;;;;;;;8.82;35.91;100116.75;6308893;22;20006;-86
2022/03/24 07:06:31;;;;;;;15.00;8.80;;;;;;;9.20;35.26;100164.78;6337229;22;19999;-87
2022/03/24 07:08:56;;;;;;;10.57;7.82;;;;;;;8.71;35.29;100074.88;6309573;22;20455;-86
2022/03/24 07:11:22;;;;;;;11.68;7.85;;;;;;;8.90;35.08;100065.94;6337725;22;20005;-88
2022/03/24 07:13:47;;;;;;;17.80;8.43;;;;;;;8.54;34.73;99983.59;6309835;22;20003;-86
2022/03/24 07:16:13;;;;;;;12.95;7.30;;;;;;;9.11;34.80;100073.50;6309744;22;20033;-85
2022/03/24 07:18:38;;;;;;;13.77;9.45;;;;;;;9.84;34.83;100171.44;6309857;22;20006;-86
2022/03/24 07:21:04;;;;;;;10.93;7.90;;;;;;;9.24;34.21;100050.19;6336863;22;19999;-87
2022/03/24 07:23:29;;;;;;;15.57;8.52;;;;;;;9.24;34.25;100035.22;6309575;22;20075;-86
2022/03/24 07:25:54;;;;;;;16.23;8.93;;;;;;;9.91;34.34;100125.00;6337136;22;19995;-86
2022/03/24 07:28:20;;;;;;;15.52;8.05;;;;;;;9.84;34.12;100097.59;6337629;22;19998;-86
2022/03/24 07:30:50;;;;;;;13.13;7.85;;;;;;;8.79;33.92;99918.75;6309786;22;20002;-86
2022/03/24 07:33:16;;;;;;;14.10;7.70;;;;;;;9.45;33.87;99997.91;6337114;22;19999;-87
2022/03/24 07:35:42;;;;;;;16.23;8.55;;;;;;;10.09;33.77;100098.50;6337384;22;20461;-86
2022/03/24 07:38:09;;;;;;;16.23;9.20;;;;;;;10.25;33.65;100105.66;6309636;22;20030;-86
2022/03/24 07:40:34;;;;;;;13.80;8.52;;;;;;;9.99;33.75;100056.44;6337220;22;19999;-86
2022/03/24 07:43:04;;;;;;;15.90;8.68;;;;;;;10.02;33.40;100040.28;6309529;22;20032;-86
2022/03/24 07:45:30;;;;;;;13.43;9.20;;;;;;;10.54;33.45;100121.91;6336864;22;20021;-86
2022/03/24 07:48:06;;;;;;;15.10;10.18;;;;;;;9.53;33.39;99932.03;6309499;22;20003;-86
2022/03/24 07:50:32;;;;;;;11.95;8.65;;;;;;;10.93;33.45;100161.69;6309456;22;20053;-86
2022/03/24 07:53:13;;;;;;;11.73;7.75;;;;;;;10.26;33.61;100034.25;6336943;22;19995;-86
2022/03/24 07:55:41;;;;;;;13.27;8.15;;;;;;;11.09;33.46;100153.75;6336983;22;20454;-86
2022/03/24 07:58:08;;;;;;;13.02;8.02;;;;;;;11.19;32.95;100148.34;6336856;22;20013;-86
2022/03/24 08:00:35;;;;;;;13.40;8.82;;;;;;;10.19;33.30;99973.34;6337148;22;19990;-85
2022/03/24 08:03:00;;;;;;;12.75;8.43;;;;;;;11.36;33.19;100141.19;6337279;22;20010;-86
2022/03/24 08:05:26;;;;;;;15.18;8.63;;;;;;;11.27;32.84;100105.19;6336816;22;20025;-85
2022/03/24 08:07:54;;;;;;;13.85;8.38;;;;;;;11.31;33.44;100103.88;6336766;22;19995;-86
2022/03/24 08:10:20;;;;;;;17.67;7.90;;;;;;;11.02;32.95;100033.88;6309025;22;20022;-85
2022/03/24 08:12:45;;;;;;;14.02;7.28;;;;;;;11.02;33.76;100015.38;6336551;22;19995;-86
2022/03/24 08:15:11;;;;;;;16.58;8.23;;;;;;;11.63;33.44;100109.06;6336904;22;20553;-85
2022/03/24 08:17:36;;;;;;;12.98;8.50;;;;;;;11.50;33.23;100063.81;6336524;22;20048;-86
2022/03/24 08:20:03;;;;;;;15.18;7.18;;;;;;;11.79;32.86;100097.63;6336687;22;20003;-85
2022/03/24 08:22:29;;;;;;;12.32;7.75;;;;;;;12.00;33.32;100121.69;6336197;22;20002;-84
2022/03/24 08:24:54;;;;;;;16.73;7.43;;;;;;;12.15;33.09;100102.44;6336737;22;19991;-85
2022/03/24 08:27:20;;;;;;;13.50;7.78;;;;;;;11.90;32.96;100047.00;6308913;22;20721;-86
2022/03/24 08:29:45;;;;;;;12.30;7.88;;;;;;;12.12;32.85;100050.66;6336916;22;19999;-85
2022/03/24 08:32:12;;;;;;;13.00;8.23;;;;;;;11.95;32.93;100006.78;6336467;22;20470;-85
2022/03/24 08:34:38;;;;;;;13.20;7.78;;;;;;;12.35;32.69;100032.94;6336614;22;19994;-85
2022/03/24 08:37:04;;;;;;;12.93;9.15;;;;;;;12.79;33.00;100109.13;6307746;22;20033;-85
2022/03/24 08:39:30;;;;;;;12.38;7.30;;;;;;;11.71;32.60;99905.34;6308940;22;20002;-85
2022/03/24 08:41:55;;;;;;;17.52;9.27;;;;;;;12.73;32.77;100031.16;6336746;22;19995;-86
2022/03/24 08:44:21;;;;;;;13.25;9.60;;;;;;;12.71;32.06;99997.91;6308931;22;20006;-86
2022/03/24 08:46:46;;;;;;;13.45;8.82;;;;;;;13.17;32.07;100038.38;6336740;22;20056;-86
2022/03/24 08:49:12;;;;;;;15.48;8.73;;;;;;;13.31;31.20;100031.41;6308997;22;20364;-86
2022/03/24 08:51:38;;;;;;;17.65;10.43;;;;;;;13.40;30.85;100022.38;6336475;22;20069;-84
2022/03/24 08:54:05;;;;;;;12.98;8.43;;;;;;;14.02;30.78;100096.22;6308897;22;20005;-83
2022/03/24 08:56:30;;;;;;;14.77;8.30;;;;;;;13.88;30.49;100047.44;6308789;22;20070;-86
2022/03/24 08:58:56;;;;;;;13.88;7.82;;;;;;;13.91;30.14;100031.16;6309013;22;20033;-86
2022/03/24 09:01:21;;;;;;;14.02;8.70;;;;;;;14.20;30.02;100050.69;6303495;22;20018;-85
2022/03/24 09:03:49;;;;;;;12.23;7.88;;;;;;;14.71;29.71;100085.09;6305255;22;20000;-84
2022/03/24 09:06:15;;;;;;;10.77;8.43;;;;;;;14.65;29.43;100054.81;6305167;22;19996;-84
2022/03/24 09:08:42;;;;;;;14.77;8.63;;;;;;;14.85;29.14;100045.16;6304008;22;20022;-84
2022/03/24 09:11:09;;;;;;;12.32;7.72;;;;;;;15.06;28.89;100054.09;6303415;22;20026;-86
2022/03/24 09:13:37;;;;;;;13.18;8.25;;;;;;;15.17;27.43;100030.44;6302385;22;20048;-85
2022/03/24 09:16:05;;;;;;;14.82;8.85;;;;;;;15.46;27.56;100049.84;6303350;22;20007;-86
2022/03/24 09:18:30;;;;;;;14.75;9.60;;;;;;;15.75;26.84;100057.59;6303491;22;20094;-86
2022/03/24 09:20:57;;;;;;;14.10;8.73;;;;;;;15.62;26.29;100033.59;6303316;22;20459;-85
2022/03/24 09:23:24;;;;;;;15.00;9.02;;;;;;;15.27;26.11;99944.97;6303342;22;19996;-85
2022/03/24 09:25:50;;;;;;;12.10;9.00;;;;;;;16.11;25.98;100059.97;6304418;22;19999;-85
2022/03/24 09:28:15;;;;;;;15.68;9.70;;;;;;;15.78;25.28;99990.66;6305269;22;19999;-85
2022/03/24 09:30:42;;;;;;;15.57;9.95;;;;;;;15.79;25.08;99976.31;6302960;22;19999;-85
2022/03/24 09:33:08;;;;;;;12.82;9.38;;;;;;;15.86;24.91;99969.16;6302725;22;20007;-85
2022/03/24 09:35:34;;;;;;;14.65;9.02;;;;;;;16.67;24.16;100051.69;6303221;22;20034;-85
2022/03/24 09:38:00;;;;;;;14.52;9.70;;;;;;;16.34;24.15;99977.00;6300886;22;20010;-85
2022/03/24 09:40:26;;;;;;;10.80;8.23;;;;;;;17.02;24.23;100067.47;6302449;22;19991;-85
2022/03/24 09:42:52;;;;;;;12.38;9.27;;;;;;;17.02;23.78;100046.13;6302099;22;20038;-84
2022/03/24 09:45:17;;;;;;;17.63;9.48;;;;;;;16.92;23.55;100003.88;6304180;22;20074;-84
2022/03/24 09:47:43;;;;;;;13.93;9.90;;;;;;;16.56;23.29;99916.31;6302478;22;20003;-85
2022/03/24 09:50:11;;;;;;;17.35;9.98;;;;;;;17.54;23.00;100047.06;6306364;22;20441;-85
2022/03/24 09:52:37;;;;;;;11.40;9.05;;;;;;;17.11;23.06;99954.19;6304526;22;20011;-84
2022/03/24 09:55:04;;;;;;;14.32;9.50;;;;;;;17.78;22.66;100039.16;6306307;22;20030;-84
2022/03/24 09:57:29;;;;;;;12.85;8.77;;;;;;;17.22;22.81;99929.53;6301975;22;20000;-84
2022/03/24 09:59:55;;;;;;;13.20;9.20;;;;;;;18.01;22.60;100021.81;6304469;22;19995;-85
2022/03/24 10:02:21;;;;;;;12.98;9.60;;;;;;;17.98;22.90;99996.34;6304625;22;20007;-84
2022/03/24 10:04:50;;;;;;;15.27;9.23;;;;;;;18.20;22.59;100036.91;6304216;22;19999;-85
2022/03/24 10:07:18;;;;;;;14.43;9.82;;;;;;;17.82;22.23;99950.59;6303416;22;20026;-85
2022/03/24 10:09:47;;;;;;;13.73;9.77;;;;;;;18.34;22.27;100000.22;6305033;22;19995;-85
2022/03/24 10:12:21;;;;;;;13.00;9.48;;;;;;;18.72;22.07;100009.00;6306433;22;19995;-85
2022/03/24 10:15:05;;;;;;;14.80;9.10;;;;;;;18.85;21.34;100000.03;6306264;22;20080;-85
2022/03/24 10:17:34;;;;;;;13.00;9.00;;;;;;;18.59;21.82;99946.75;6305931;22;20014;-85
2022/03/24 10:20:05;;;;;;;15.07;9.27;;;;;;;18.69;21.32;99953.28;6304864;22;20014;-85
2022/03/24 10:22:32;;;;;;;13.20;8.70;;;;;;;19.04;21.60;99990.97;6304684;22;20003;-84
2022/03/24 10:24:58;;;;;;;13.77;8.95;;;;;;;19.15;21.44;99988.59;6305764;22;20025;-84
2022/03/24 10:27:29;;;;;;;14.00;9.55;;;;;;;19.38;20.29;99979.94;6305948;22;19996;-82
2022/03/24 10:29:57;;;;;;;16.20;9.38;;;;;;;18.98;21.02;99924.97;6306100;22;19999;-82
2022/03/24 10:32:33;;;;;;;11.32;9.55;;;;;;;19.67;20.64;99976.50;6304291;22;20003;-82
2022/03/24 10:35:11;;;;;;;13.40;10.23;;;;;;;19.40;20.86;99901.00;6305516;22;20402;-84
2022/03/24 10:37:37;;;;;;;14.85;9.57;;;;;;;19.94;20.69;99956.31;6303374;22;20003;-82
2022/03/24 10:40:08;;;;;;;13.13;10.48;;;;;;;20.06;20.49;99948.28;6304079;22;20059;-83
2022/03/24 10:42:37;;;;;;;11.32;8.75;;;;;;;20.36;20.43;99958.97;6303151;22;20352;-82
2022/03/24 10:45:14;;;;;;;13.27;9.57;;;;;;;20.39;20.06;99974.63;6305391;22;20052;-82
2022/03/24 10:48:00;;;;;;;13.02;9.73;;;;;;;20.45;19.86;99954.13;6306298;22;20070;-83
2022/03/24 10:50:40;;;;;;;13.88;9.00;;;;;;;20.62;19.20;99938.97;6304499;22;20010;-84
2022/03/24 10:53:12;;;;;;;14.90;9.68;;;;;;;20.45;19.42;99893.25;6304922;22;20402;-84
2022/03/24 10:55:44;;;;;;;12.40;8.60;;;;;;;20.89;19.25;99942.00;6304225;22;20026;-84
2022/03/24 10:58:24;;;;;;;11.70;8.30;;;;;;;20.94;19.70;99924.13;6305865;22;20448;-84
2022/03/24 11:00:54;;;;;;;18.08;9.63;;;;;;;20.55;19.54;99845.19;6308008;22;20329;-83
2022/03/24 11:03:21;;;;;;;13.77;8.70;;;;;;;20.76;19.13;99883.19;6337477;22;20002;-83
2022/03/24 11:05:46;;;;;;;11.20;8.95;;;;;;;20.53;19.28;99846.47;6309732;22;19998;-85
2022/03/24 11:08:17;;;;;;;11.10;9.00;;;;;;;21.12;18.98;99911.59;6309611;22;19998;-86
2022/03/24 11:10:45;;;;;;;14.43;9.25;;;;;;;20.99;19.16;99872.41;6309453;22;20044;-83
2022/03/24 11:13:13;;;;;;;9.50;7.82;;;;;;;21.10;18.95;99878.81;6309312;22;19999;-83
2022/03/24 11:15:40;;;;;;;16.42;8.63;;;;;;;20.66;19.12;99815.88;6309472;22;20003;-84
2022/03/24 11:18:07;;;;;;;10.38;7.47;;;;;;;21.26;19.01;99886.13;6336980;22;20002;-85
2022/03/24 11:20:38;;;;;;;10.80;8.07;;;;;;;21.49;18.59;99904.84;6309479;22;19999;-84
2022/03/24 11:23:17;;;;;;;13.55;8.05;;;;;;;21.46;18.89;99910.69;6337246;22;20014;-84
2022/03/24 11:25:43;;;;;;;14.10;8.23;;;;;;;21.39;18.62;99879.66;6337470;22;20029;-85
2022/03/24 11:28:13;;;;;;;9.30;7.20;;;;;;;20.44;18.68;99733.38;6337654;22;20424;-84
2022/03/24 11:30:39;;;;;;;14.00;8.93;;;;;;;21.18;18.47;99849.69;6310126;22;19999;-85
2022/03/24 11:33:04;;;;;;;13.48;7.78;;;;;;;21.53;18.55;99876.44;6309665;22;20002;-84
2022/03/24 11:35:33;;;;;;;12.18;7.97;;;;;;;21.52;18.40;99845.25;6337664;22;20003;-86
2022/03/24 11:38:01;;;;;;;10.63;7.68;;;;;;;21.29;18.55;99825.75;6309962;22;20336;-84
2022/03/24 11:40:29;;;;;;;10.48;7.68;;;;;;;21.56;18.55;99827.63;6337601;22;19998;-83
2022/03/24 11:43:11;;;;;;;11.75;7.65;;;;;;;21.84;18.02;99855.47;6309534;22;20355;-84
2022/03/24 11:45:49;;;;;;;9.88;7.90;;;;;;;21.98;18.33;99854.09;6334192;22;20442;-85